createdAt,value
2023-04-27T00:01:27.604Z,4.1
2023-04-27T00:05:30.337Z,4.1
2023-04-27T00:09:33.885Z,4.1
2023-04-27T00:11:35.118Z,4.1
2023-04-27T00:15:38.078Z,4.1
2023-04-27T00:21:43.497Z,4.1
2023-04-27T00:27:47.966Z,4.1
2023-04-27T00:31:51.373Z,4.1
2023-04-27T00:37:56.316Z,4.1
2023-04-27T00:41:59.778Z,4.1
2023-04-27T00:44:00.924Z,4.09
2023-04-27T00:48:04.220Z,4.09
2023-04-27T00:52:06.924Z,4.1
2023-04-27T00:54:08.516Z,4.09
2023-04-27T00:58:11.449Z,4.09
2023-04-27T01:02:14.599Z,4.09
2023-04-27T01:04:16.213Z,4.09
2023-04-27T01:08:19.005Z,4.09
2023-04-27T01:10:20.758Z,4.09
2023-04-27T01:14:24.136Z,4.09
2023-04-27T01:20:28.008Z,4.09
2023-04-27T01:26:33.326Z,4.08
2023-04-27T01:30:36.732Z,4.08
2023-04-27T01:34:39.676Z,4.08
2023-04-27T01:36:40.851Z,4.08
2023-04-27T01:40:44.592Z,4.09
2023-04-27T01:44:47.485Z,4.08
2023-04-27T01:46:49.108Z,4.08
2023-04-27T01:50:52.044Z,4.08
2023-04-27T01:52:53.544Z,4.08
2023-04-27T01:54:54.661Z,4.08
2023-04-27T01:56:55.955Z,4.08
2023-04-27T02:03:00.422Z,4.08
2023-04-27T02:09:05.707Z,4.08
2023-04-27T02:13:08.731Z,4.08
2023-04-27T02:19:12.808Z,4.08
2023-04-27T02:23:16.385Z,4.08
2023-04-27T02:29:20.822Z,4.08
2023-04-27T02:33:23.960Z,4.08
2023-04-27T02:35:25.683Z,4.08
2023-04-27T02:39:28.819Z,4.08
2023-04-27T02:45:33.320Z,4.08
2023-04-27T02:47:34.899Z,4.07
2023-04-27T02:51:37.787Z,4.07
2023-04-27T02:55:41.348Z,4.07
2023-04-27T03:01:46.680Z,4.07
2023-04-27T03:05:49.979Z,4.07
2023-04-27T03:07:51.087Z,4.07
2023-04-27T03:11:54.279Z,4.07
2023-04-27T03:15:56.961Z,4.07
2023-04-27T03:17:58.108Z,4.07
2023-04-27T03:22:01.066Z,4.07
2023-04-27T03:28:05.301Z,4.07
2023-04-27T03:34:10.682Z,4.07
2023-04-27T03:38:14.159Z,4.06
2023-04-27T03:44:18.438Z,4.06
2023-04-27T03:48:21.047Z,4.06
2023-04-27T03:50:22.520Z,4.06
2023-04-27T03:54:25.917Z,4.06
2023-04-27T03:58:29.406Z,4.06
2023-04-27T04:00:30.784Z,4.06
2023-04-27T04:04:33.839Z,4.06
2023-04-27T04:10:38.320Z,4.06
2023-04-27T04:16:43.010Z,4.06
2023-04-27T04:19:28.993Z,4.06
2023-04-27T04:21:31.033Z,4.06
2023-04-27T04:25:34.256Z,4.06
2023-04-27T04:27:35.813Z,4.06
2023-04-27T04:31:39.548Z,4.06
2023-04-27T04:35:42.969Z,4.06
2023-04-27T04:37:44.084Z,4.06
2023-04-27T04:41:47.365Z,4.06
2023-04-27T04:47:52.539Z,4.06
2023-04-27T04:53:57.367Z,4.06
2023-04-27T04:58:00.022Z,4.06
2023-04-27T05:04:04.017Z,4.06
2023-04-27T05:08:06.989Z,4.06
2023-04-27T05:10:08.736Z,4.05
2023-04-27T05:14:11.222Z,4.05
2023-04-27T05:18:14.086Z,4.05
2023-04-27T05:20:16.221Z,4.06
2023-04-27T05:24:19.201Z,4.05
2023-04-27T05:28:21.841Z,4.05
2023-04-27T05:30:22.992Z,4.05
2023-04-27T05:34:25.920Z,4.05
2023-04-27T05:36:27.603Z,4.05
2023-04-27T05:38:29.014Z,4.05
2023-04-27T05:40:30.568Z,4.05
2023-04-27T05:46:36.478Z,4.06
2023-04-27T05:48:35.940Z,4.06
2023-04-27T05:52:39.628Z,4.06
2023-04-27T05:56:42.074Z,4.06
2023-04-27T06:02:46.767Z,4.06
2023-04-27T06:06:50.038Z,4.06
2023-04-27T06:12:54.632Z,4.06
2023-04-27T06:16:56.960Z,4.07
2023-04-27T06:18:57.964Z,4.07
2023-04-27T06:23:01.500Z,4.08
2023-04-27T06:29:05.599Z,4.08
2023-04-27T06:35:10.009Z,4.08
2023-04-27T06:39:13.184Z,4.09
2023-04-27T06:45:17.735Z,4.1
2023-04-27T06:49:21.271Z,4.1
2023-04-27T06:51:22.403Z,4.1
2023-04-27T06:55:26.082Z,4.1
2023-04-27T06:59:28.970Z,4.12
2023-04-27T07:01:30.199Z,4.12
2023-04-27T07:05:32.649Z,4.12
2023-04-27T07:11:37.426Z,4.13
2023-04-27T07:17:41.548Z,4.14
2023-04-27T07:21:44.162Z,4.16
2023-04-27T07:27:47.851Z,4.16
2023-04-27T07:31:52.253Z,4.17
2023-04-27T07:33:53.430Z,4.17
2023-04-27T07:37:56.719Z,4.17
2023-04-27T07:41:59.124Z,4.18
2023-04-27T07:44:00.349Z,4.18
2023-04-27T07:48:03.493Z,4.18
2023-04-27T07:54:08.046Z,4.19
2023-04-27T08:00:11.723Z,4.19
2023-04-27T08:04:14.875Z,4.19
2023-04-27T08:10:18.163Z,4.19
2023-04-27T08:14:21.524Z,4.19
2023-04-27T08:16:22.717Z,4.19
2023-04-27T08:20:25.040Z,4.2
2023-04-27T08:24:27.801Z,4.19
2023-04-27T08:26:29.480Z,4.19
2023-04-27T08:30:31.502Z,4.2
2023-04-27T08:34:33.709Z,4.2
2023-04-27T08:36:34.626Z,4.2
2023-04-27T08:40:37.871Z,4.2
2023-04-27T08:42:39.547Z,4.2
2023-04-27T08:44:40.770Z,4.2
2023-04-27T08:46:42.097Z,4.2
2023-04-27T08:52:45.490Z,4.2
2023-04-27T08:58:49.105Z,4.2
2023-04-27T09:02:51.735Z,4.2
2023-04-27T09:08:56.204Z,4.19
2023-04-27T09:12:59.888Z,4.19
2023-04-27T09:15:01.341Z,4.19
2023-04-27T09:19:04.546Z,4.19
2023-04-27T09:23:07.756Z,4.19
2023-04-27T09:25:09.362Z,4.19
2023-04-27T09:29:11.914Z,4.19
2023-04-27T09:35:16.156Z,4.18
2023-04-27T09:39:18.964Z,4.18
2023-04-27T09:41:19.810Z,4.18
2023-04-27T09:45:22.642Z,4.18
2023-04-27T09:51:28.442Z,4.18
2023-04-27T09:53:30.196Z,4.18
2023-04-27T09:55:31.430Z,4.18
2023-04-27T09:57:33.085Z,4.18
2023-04-27T10:01:37.474Z,4.18
2023-04-27T10:05:38.666Z,4.18
2023-04-27T10:07:39.644Z,4.18
2023-04-27T10:11:43.474Z,4.18
2023-04-27T10:17:47.428Z,4.18
2023-04-27T10:23:51.648Z,4.18
2023-04-27T10:27:54.020Z,4.17
2023-04-27T10:33:57.386Z,4.17
2023-04-27T10:37:59.788Z,4.17
2023-04-27T10:40:01.606Z,4.17
2023-04-27T10:44:04.493Z,4.17
2023-04-27T10:48:07.042Z,4.17
2023-04-27T10:50:09.374Z,4.17
2023-04-27T10:54:12.199Z,4.17
2023-04-27T10:58:14.246Z,4.17
2023-04-27T11:00:16.492Z,4.17
2023-04-27T11:04:19.588Z,4.17
2023-04-27T11:11:07.238Z,4.17
2023-04-27T11:13:08.912Z,4.17
2023-04-27T11:17:11.277Z,4.17
2023-04-27T11:21:13.941Z,4.17
2023-04-27T11:27:17.249Z,4.16
2023-04-27T11:31:19.577Z,4.16
2023-04-27T11:33:21.193Z,4.16
2023-04-27T11:37:23.635Z,4.17
2023-04-27T11:41:26.768Z,4.16
2023-04-27T11:43:28.309Z,4.16
2023-04-27T11:47:31.501Z,4.16
2023-04-27T11:53:35.067Z,4.16
2023-04-27T11:59:38.560Z,4.16
2023-04-27T12:03:40.864Z,4.16
2023-04-27T12:09:44.238Z,4.16
2023-04-27T12:13:46.648Z,4.16
2023-04-27T12:15:47.643Z,4.16
2023-04-27T12:19:50.312Z,4.16
2023-04-27T12:23:52.376Z,4.16
2023-04-27T12:25:53.694Z,4.16
2023-04-27T12:29:57.051Z,4.15
2023-04-27T12:33:59.985Z,4.16
2023-04-27T12:36:01.437Z,4.16
2023-04-27T12:40:03.348Z,4.15
2023-04-27T12:42:04.401Z,4.15
2023-04-27T12:44:05.601Z,4.15
2023-04-27T12:46:06.826Z,4.16
2023-04-27T12:52:11.167Z,4.16
2023-04-27T12:54:13.168Z,4.15
2023-04-27T12:58:15.737Z,4.15
2023-04-27T13:02:18.223Z,4.15
2023-04-27T13:08:31.239Z,4.15
2023-04-27T13:12:24.519Z,4.15
2023-04-27T13:14:25.695Z,4.15
2023-04-27T13:18:28.728Z,4.14
2023-04-27T13:22:30.794Z,4.14
2023-04-27T13:24:32.302Z,4.15
2023-04-27T13:26:33.612Z,4.14
2023-04-27T13:30:36.547Z,4.14
2023-04-27T13:34:39.075Z,4.14
2023-04-27T13:40:43.260Z,4.15
2023-04-27T13:44:45.189Z,4.14
2023-04-27T13:46:47.898Z,4.14
2023-04-27T13:50:50.290Z,4.14
2023-04-27T13:54:53.491Z,4.14
2023-04-27T13:56:54.980Z,4.14
2023-04-27T14:00:57.133Z,4.14
2023-04-27T14:07:00.967Z,4.14
2023-04-27T14:13:04.858Z,4.14
2023-04-27T14:17:07.496Z,4.14
2023-04-27T14:23:11.004Z,4.14
2023-04-27T14:27:13.849Z,4.14
2023-04-27T14:29:15.033Z,4.14
2023-04-27T14:33:17.522Z,4.17
2023-04-27T14:37:19.434Z,4.17
2023-04-27T14:39:20.774Z,4.18
2023-04-27T14:43:23.321Z,4.18
2023-04-27T14:49:27.120Z,4.18
2023-04-27T14:55:30.711Z,4.19
2023-04-27T14:59:33.708Z,4.19
2023-04-27T15:05:37.068Z,4.19
2023-04-27T15:11:40.082Z,4.2
2023-04-27T15:15:42.862Z,4.2
2023-04-27T15:21:47.050Z,4.2
2023-04-27T15:25:49.244Z,4.2
2023-04-27T15:29:52.488Z,4.2
2023-04-27T15:31:53.450Z,4.2
2023-04-27T15:35:55.913Z,4.2
2023-04-27T15:37:57.564Z,4.2
2023-04-27T15:39:59.171Z,4.2
2023-04-27T15:42:00.006Z,4.2
2023-04-27T15:48:04.237Z,4.2
2023-04-27T15:52:06.994Z,4.19
2023-04-27T15:54:08.337Z,4.19
2023-04-27T15:58:10.578Z,4.19
2023-04-27T16:04:14.049Z,4.19
2023-04-27T16:08:16.580Z,4.19
2023-04-27T16:10:18.137Z,4.19
2023-04-27T16:14:20.083Z,4.18
2023-04-27T16:18:22.494Z,4.19
2023-04-27T16:20:24.312Z,4.18
2023-04-27T16:24:26.639Z,4.18
2023-04-27T16:30:30.366Z,4.19
2023-04-27T16:36:33.533Z,4.19
2023-04-27T16:40:36.560Z,4.18
2023-04-27T16:46:40.462Z,4.18
2023-04-27T16:50:43.164Z,4.18
2023-04-27T16:52:44.436Z,4.18
2023-04-27T16:56:47.909Z,4.18
2023-04-27T17:00:51.086Z,4.18
2023-04-27T17:02:52.132Z,4.18
2023-04-27T17:06:54.863Z,4.17
2023-04-27T17:10:57.787Z,4.17
2023-04-27T17:12:59.444Z,4.17
2023-04-27T17:17:01.688Z,4.17
2023-04-27T17:19:02.531Z,4.17
2023-04-27T17:21:03.912Z,4.17
2023-04-27T17:23:04.902Z,4.17
2023-04-27T17:29:09.722Z,4.17
2023-04-27T17:31:11.077Z,4.17
2023-04-27T17:35:13.885Z,4.17
2023-04-27T17:39:17.490Z,4.17
2023-04-27T17:45:20.071Z,4.17
2023-04-27T17:49:23.527Z,4.17
2023-04-27T17:50:07.306Z,4.17
2023-04-27T17:54:09.383Z,4.17
2023-04-27T17:56:10.761Z,4.17
2023-04-27T18:00:13.318Z,4.17
2023-04-27T18:06:16.716Z,4.17
2023-04-27T18:12:20.356Z,4.16
2023-04-27T18:16:23.234Z,4.16
2023-04-27T18:22:27.353Z,4.16
2023-04-27T18:26:29.878Z,4.16
2023-04-27T18:28:31.530Z,4.16
2023-04-27T18:32:34.200Z,4.16
2023-04-27T18:36:36.313Z,4.16
2023-04-27T18:38:38.205Z,4.16
2023-04-27T18:42:41.150Z,4.16
2023-04-27T18:46:44.089Z,4.16
2023-04-27T18:48:45.060Z,4.16
2023-04-27T18:52:48.457Z,4.16
2023-04-27T18:54:49.856Z,4.16
2023-04-27T18:56:50.832Z,4.16
2023-04-27T18:58:52.357Z,4.16
2023-04-27T19:05:10.766Z,4.16
2023-04-27T19:06:58.380Z,4.16
2023-04-27T19:11:00.902Z,4.16
2023-04-27T19:15:03.306Z,4.15
2023-04-27T19:21:07.361Z,4.16
2023-04-27T19:25:09.358Z,4.15
2023-04-27T19:27:10.965Z,4.15
2023-04-27T19:31:14.242Z,4.15
2023-04-27T19:35:16.636Z,4.15
2023-04-27T19:37:17.828Z,4.15
2023-04-27T19:41:20.926Z,4.15
2023-04-27T19:47:24.136Z,4.15
2023-04-27T19:53:28.330Z,4.15
2023-04-27T19:57:32.051Z,4.14
2023-04-27T20:03:37.077Z,4.14
2023-04-27T20:07:40.150Z,4.14
2023-04-27T20:09:41.968Z,4.14
2023-04-27T20:13:44.321Z,4.14
2023-04-27T20:17:47.972Z,4.14
2023-04-27T20:19:49.446Z,4.14
2023-04-27T20:23:52.294Z,4.14
2023-04-27T20:29:57.417Z,4.14
2023-04-27T20:36:10.284Z,4.14
2023-04-27T20:40:04.646Z,4.14
2023-04-27T20:46:08.516Z,4.14
2023-04-27T20:50:11.416Z,4.14
2023-04-27T20:52:13.123Z,4.14
2023-04-27T20:56:15.814Z,4.14
2023-04-27T21:02:20.678Z,4.14
2023-04-27T21:06:22.846Z,4.13
2023-04-27T21:12:27.553Z,4.13
2023-04-27T21:18:32.285Z,4.13
2023-04-27T21:22:35.201Z,4.13
2023-04-27T21:28:40.154Z,4.13
2023-04-27T21:32:43.164Z,4.13
2023-04-27T21:34:44.478Z,4.13
2023-04-27T21:38:47.215Z,4.13
2023-04-27T21:42:49.881Z,4.13
2023-04-27T21:44:50.947Z,4.13
2023-04-27T21:48:53.962Z,4.13
2023-04-27T21:52:56.610Z,4.13
2023-04-27T21:54:58.404Z,4.12
2023-04-27T21:59:01.443Z,4.12
2023-04-27T22:01:02.495Z,4.12
2023-04-27T22:03:03.779Z,4.12
2023-04-27T22:05:05.711Z,4.12
2023-04-27T22:11:10.386Z,4.12
2023-04-27T22:17:15.112Z,4.12
2023-04-27T22:21:18.526Z,4.12
2023-04-27T22:25:20.564Z,4.12
2023-04-27T22:31:25.320Z,4.12
2023-04-27T22:35:28.230Z,4.12
2023-04-27T22:37:29.679Z,4.12
2023-04-27T22:41:31.620Z,4.12
2023-04-27T22:43:33.597Z,4.12
2023-04-27T22:45:36.686Z,4.12
2023-04-27T22:47:36.924Z,4.12
2023-04-27T22:53:40.982Z,4.12
2023-04-27T22:55:42.806Z,4.12
2023-04-27T22:59:44.979Z,4.12
2023-04-27T23:03:47.895Z,4.12
2023-04-27T23:09:51.756Z,4.12
2023-04-27T23:13:54.948Z,4.12
2023-04-27T23:15:56.146Z,4.11
2023-04-27T23:19:58.824Z,4.11
2023-04-27T23:24:01.756Z,4.11
2023-04-27T23:26:03.051Z,4.11
2023-04-27T23:30:06.129Z,4.11
2023-04-27T23:36:11.785Z,4.11
2023-04-27T23:42:15.445Z,4.11
2023-04-27T23:46:17.411Z,4.11
2023-04-27T23:52:20.630Z,4.11
2023-04-27T23:54:21.899Z,4.1
2023-04-27T23:56:23.592Z,4.11
2023-04-27T23:58:25.511Z,4.1
